Industry, Nebraska
Current Conditions -  °F | °C
As of 3:15 PM on Wednesday 26 Nov 2014 (Local Time) from KHDE Reporting Station
Scattered Clouds Scattered Clouds  
Wind Chill: 23°   Ceiling: Unl
Heat Index: 33°   Visibility: 10mi
Dew Point: 18°   Wind: 14mph
Humidity: 53%   Direction: 350°N
Pressure: 30.28"   Gusts: 17mph
Location:  40.3923°N, 99.5355°W
Report Text: KHDE 262115Z AUTO 35012G15KT 10SM SCT110 01/M08 A3028 RMK AO2 T00051080
Loading
Personal Weather Stations






























Interactive Weather Map New forecast layout! Learn more

10-Day Weather Forecast

Advertisements
Track Severe Weather on mobile